sensor_id;sensor_type;location;lat;lon;timestamp;P1;durP1;ratioP1;P2;durP2;ratioP2
75139;SDS011;63714;55.812;37.658;2023-08-31T00:01:38;6.30;;;4.20;;
75139;SDS011;63714;55.812;37.658;2023-08-31T00:04:04;6.55;;;4.55;;
75139;SDS011;63714;55.812;37.658;2023-08-31T00:06:32;7.32;;;5.03;;
75139;SDS011;63714;55.812;37.658;2023-08-31T00:08:58;6.47;;;4.22;;
75139;SDS011;63714;55.812;37.658;2023-08-31T00:11:23;9.07;;;4.95;;
75139;SDS011;63714;55.812;37.658;2023-08-31T00:13:51;7.30;;;4.30;;
75139;SDS011;63714;55.812;37.658;2023-08-31T00:16:17;7.43;;;5.22;;
75139;SDS011;63714;55.812;37.658;2023-08-31T00:18:43;7.45;;;5.20;;
75139;SDS011;63714;55.812;37.658;2023-08-31T00:21:10;8.07;;;5.18;;
75139;SDS011;63714;55.812;37.658;2023-08-31T00:23:36;10.35;;;5.63;;
75139;SDS011;63714;55.812;37.658;2023-08-31T00:26:02;8.35;;;5.25;;
75139;SDS011;63714;55.812;37.658;2023-08-31T00:28:28;7.20;;;4.70;;
75139;SDS011;63714;55.812;37.658;2023-08-31T00:30:54;7.13;;;4.55;;
75139;SDS011;63714;55.812;37.658;2023-08-31T00:33:19;9.38;;;5.28;;
75139;SDS011;63714;55.812;37.658;2023-08-31T00:35:45;6.63;;;4.55;;
75139;SDS011;63714;55.812;37.658;2023-08-31T00:38:12;6.70;;;4.40;;
75139;SDS011;63714;55.812;37.658;2023-08-31T00:40:41;6.40;;;4.55;;
75139;SDS011;63714;55.812;37.658;2023-08-31T00:43:09;5.57;;;4.18;;
75139;SDS011;63714;55.812;37.658;2023-08-31T00:45:35;6.85;;;4.47;;
75139;SDS011;63714;55.812;37.658;2023-08-31T00:48:02;9.40;;;4.70;;
75139;SDS011;63714;55.812;37.658;2023-08-31T00:50:28;7.10;;;4.50;;
75139;SDS011;63714;55.812;37.658;2023-08-31T00:52:53;9.63;;;6.13;;
75139;SDS011;63714;55.812;37.658;2023-08-31T00:55:19;10.27;;;6.55;;
75139;SDS011;63714;55.812;37.658;2023-08-31T00:57:45;8.77;;;5.00;;
75139;SDS011;63714;55.812;37.658;2023-08-31T01:00:10;8.77;;;4.47;;
75139;SDS011;63714;55.812;37.658;2023-08-31T01:02:40;9.02;;;6.75;;
75139;SDS011;63714;55.812;37.658;2023-08-31T01:08:11;10.88;;;5.25;;
75139;SDS011;63714;55.812;37.658;2023-08-31T01:13:33;9.00;;;4.70;;
75139;SDS011;63714;55.812;37.658;2023-08-31T01:16:05;10.73;;;6.45;;
75139;SDS011;63714;55.812;37.658;2023-08-31T01:18:33;10.82;;;6.53;;
75139;SDS011;63714;55.812;37.658;2023-08-31T01:21:11;9.48;;;5.55;;
75139;SDS011;63714;55.812;37.658;2023-08-31T01:23:50;13.77;;;8.07;;
75139;SDS011;63714;55.812;37.658;2023-08-31T01:26:18;10.98;;;7.32;;
75139;SDS011;63714;55.812;37.658;2023-08-31T01:28:45;8.90;;;6.55;;
75139;SDS011;63714;55.812;37.658;2023-08-31T01:31:11;11.77;;;6.30;;
75139;SDS011;63714;55.812;37.658;2023-08-31T01:33:36;12.38;;;6.95;;
75139;SDS011;63714;55.812;37.658;2023-08-31T01:36:03;11.30;;;6.60;;
75139;SDS011;63714;55.812;37.658;2023-08-31T01:38:33;9.20;;;6.35;;
75139;SDS011;63714;55.812;37.658;2023-08-31T01:41:05;11.00;;;5.50;;
75139;SDS011;63714;55.812;37.658;2023-08-31T01:43:33;8.35;;;5.90;;
75139;SDS011;63714;55.812;37.658;2023-08-31T01:46:00;8.30;;;4.93;;
75139;SDS011;63714;55.812;37.658;2023-08-31T01:48:26;7.57;;;4.68;;
75139;SDS011;63714;55.812;37.658;2023-08-31T01:50:52;11.73;;;6.72;;
75139;SDS011;63714;55.812;37.658;2023-08-31T01:53:18;12.20;;;6.85;;
75139;SDS011;63714;55.812;37.658;2023-08-31T01:55:43;12.00;;;8.18;;
75139;SDS011;63714;55.812;37.658;2023-08-31T01:58:09;7.90;;;4.97;;
75139;SDS011;63714;55.812;37.658;2023-08-31T02:00:34;9.20;;;5.32;;
75139;SDS011;63714;55.812;37.658;2023-08-31T02:03:01;8.43;;;5.10;;
75139;SDS011;63714;55.812;37.658;2023-08-31T02:05:26;14.02;;;7.75;;
75139;SDS011;63714;55.812;37.658;2023-08-31T02:07:52;10.85;;;5.50;;
75139;SDS011;63714;55.812;37.658;2023-08-31T02:10:18;9.32;;;5.97;;
75139;SDS011;63714;55.812;37.658;2023-08-31T02:13:03;10.13;;;6.63;;
75139;SDS011;63714;55.812;37.658;2023-08-31T02:15:29;11.25;;;7.55;;
75139;SDS011;63714;55.812;37.658;2023-08-31T02:17:54;15.93;;;8.48;;
75139;SDS011;63714;55.812;37.658;2023-08-31T02:20:20;11.98;;;7.60;;
75139;SDS011;63714;55.812;37.658;2023-08-31T02:22:46;11.60;;;7.55;;
75139;SDS011;63714;55.812;37.658;2023-08-31T02:25:11;13.13;;;7.88;;
75139;SDS011;63714;55.812;37.658;2023-08-31T02:27:39;13.95;;;7.40;;
75139;SDS011;63714;55.812;37.658;2023-08-31T02:30:04;13.73;;;7.65;;
75139;SDS011;63714;55.812;37.658;2023-08-31T02:32:31;11.10;;;7.97;;
75139;SDS011;63714;55.812;37.658;2023-08-31T02:34:56;10.68;;;6.88;;
75139;SDS011;63714;55.812;37.658;2023-08-31T02:37:22;13.38;;;7.55;;
75139;SDS011;63714;55.812;37.658;2023-08-31T02:39:47;13.32;;;7.88;;
75139;SDS011;63714;55.812;37.658;2023-08-31T02:42:16;14.68;;;7.65;;
75139;SDS011;63714;55.812;37.658;2023-08-31T02:44:41;10.55;;;7.53;;
75139;SDS011;63714;55.812;37.658;2023-08-31T02:47:07;14.25;;;7.40;;
75139;SDS011;63714;55.812;37.658;2023-08-31T02:49:32;14.35;;;7.05;;
75139;SDS011;63714;55.812;37.658;2023-08-31T02:51:58;11.93;;;7.20;;
75139;SDS011;63714;55.812;37.658;2023-08-31T02:54:23;14.18;;;7.70;;
75139;SDS011;63714;55.812;37.658;2023-08-31T02:56:49;11.32;;;7.35;;
75139;SDS011;63714;55.812;37.658;2023-08-31T02:59:15;11.02;;;6.97;;
75139;SDS011;63714;55.812;37.658;2023-08-31T03:01:42;12.63;;;7.63;;
75139;SDS011;63714;55.812;37.658;2023-08-31T03:04:11;12.82;;;7.22;;
75139;SDS011;63714;55.812;37.658;2023-08-31T03:06:37;12.82;;;7.80;;
75139;SDS011;63714;55.812;37.658;2023-08-31T03:09:03;13.50;;;7.20;;
75139;SDS011;63714;55.812;37.658;2023-08-31T03:11:30;13.25;;;7.45;;
75139;SDS011;63714;55.812;37.658;2023-08-31T03:13:55;12.88;;;7.32;;
75139;SDS011;63714;55.812;37.658;2023-08-31T03:16:21;13.07;;;7.22;;
75139;SDS011;63714;55.812;37.658;2023-08-31T03:18:46;13.07;;;7.88;;
75139;SDS011;63714;55.812;37.658;2023-08-31T03:21:12;13.43;;;7.10;;
75139;SDS011;63714;55.812;37.658;2023-08-31T03:23:37;12.60;;;7.63;;
75139;SDS011;63714;55.812;37.658;2023-08-31T03:26:06;15.75;;;7.28;;
75139;SDS011;63714;55.812;37.658;2023-08-31T03:28:33;13.90;;;7.70;;
75139;SDS011;63714;55.812;37.658;2023-08-31T03:30:59;11.27;;;8.00;;
75139;SDS011;63714;55.812;37.658;2023-08-31T03:33:24;12.82;;;7.35;;
75139;SDS011;63714;55.812;37.658;2023-08-31T03:35:50;12.57;;;7.45;;
75139;SDS011;63714;55.812;37.658;2023-08-31T03:38:16;14.00;;;7.78;;
75139;SDS011;63714;55.812;37.658;2023-08-31T03:40:41;15.20;;;7.50;;
75139;SDS011;63714;55.812;37.658;2023-08-31T03:43:07;11.25;;;7.78;;
75139;SDS011;63714;55.812;37.658;2023-08-31T03:45:32;15.25;;;7.57;;
75139;SDS011;63714;55.812;37.658;2023-08-31T03:47:58;12.68;;;6.93;;
75139;SDS011;63714;55.812;37.658;2023-08-31T03:50:24;13.23;;;7.50;;
75139;SDS011;63714;55.812;37.658;2023-08-31T03:52:49;14.93;;;6.38;;
75139;SDS011;63714;55.812;37.658;2023-08-31T03:55:15;11.45;;;7.78;;
75139;SDS011;63714;55.812;37.658;2023-08-31T03:57:40;12.10;;;6.82;;
75139;SDS011;63714;55.812;37.658;2023-08-31T04:00:06;15.07;;;7.50;;
75139;SDS011;63714;55.812;37.658;2023-08-31T04:02:37;14.02;;;7.10;;
75139;SDS011;63714;55.812;37.658;2023-08-31T04:05:03;9.93;;;6.88;;
75139;SDS011;63714;55.812;37.658;2023-08-31T04:07:31;12.38;;;7.43;;
75139;SDS011;63714;55.812;37.658;2023-08-31T04:09:57;13.98;;;7.50;;
75139;SDS011;63714;55.812;37.658;2023-08-31T04:12:23;15.23;;;7.43;;
75139;SDS011;63714;55.812;37.658;2023-08-31T04:14:49;10.00;;;6.22;;
75139;SDS011;63714;55.812;37.658;2023-08-31T04:17:14;11.23;;;6.70;;
75139;SDS011;63714;55.812;37.658;2023-08-31T04:19:40;12.13;;;6.90;;
75139;SDS011;63714;55.812;37.658;2023-08-31T04:22:06;15.00;;;8.13;;
75139;SDS011;63714;55.812;37.658;2023-08-31T04:24:31;13.02;;;8.63;;
75139;SDS011;63714;55.812;37.658;2023-08-31T04:26:57;11.88;;;6.53;;
75139;SDS011;63714;55.812;37.658;2023-08-31T04:29:22;10.77;;;7.15;;
75139;SDS011;63714;55.812;37.658;2023-08-31T04:31:48;11.07;;;6.85;;
75139;SDS011;63714;55.812;37.658;2023-08-31T04:34:14;11.18;;;7.30;;
75139;SDS011;63714;55.812;37.658;2023-08-31T04:36:39;17.58;;;7.90;;
75139;SDS011;63714;55.812;37.658;2023-08-31T04:39:05;12.32;;;7.18;;
75139;SDS011;63714;55.812;37.658;2023-08-31T04:41:30;13.82;;;7.22;;
75139;SDS011;63714;55.812;37.658;2023-08-31T04:43:56;11.15;;;7.40;;
75139;SDS011;63714;55.812;37.658;2023-08-31T04:46:21;13.38;;;7.07;;
75139;SDS011;63714;55.812;37.658;2023-08-31T04:48:47;15.27;;;8.15;;
75139;SDS011;63714;55.812;37.658;2023-08-31T04:51:28;14.55;;;7.68;;
75139;SDS011;63714;55.812;37.658;2023-08-31T04:53:55;15.80;;;8.23;;
75139;SDS011;63714;55.812;37.658;2023-08-31T04:56:20;12.20;;;7.45;;
75139;SDS011;63714;55.812;37.658;2023-08-31T04:58:46;12.88;;;7.25;;
75139;SDS011;63714;55.812;37.658;2023-08-31T05:01:11;12.60;;;7.50;;
75139;SDS011;63714;55.812;37.658;2023-08-31T05:03:37;13.77;;;8.13;;
75139;SDS011;63714;55.812;37.658;2023-08-31T05:06:02;16.73;;;7.82;;
75139;SDS011;63714;55.812;37.658;2023-08-31T05:08:29;14.00;;;8.43;;
75139;SDS011;63714;55.812;37.658;2023-08-31T05:10:55;13.35;;;8.32;;
75139;SDS011;63714;55.812;37.658;2023-08-31T05:13:21;12.52;;;8.38;;
75139;SDS011;63714;55.812;37.658;2023-08-31T05:15:46;14.65;;;8.73;;
75139;SDS011;63714;55.812;37.658;2023-08-31T05:18:12;15.27;;;7.72;;
75139;SDS011;63714;55.812;37.658;2023-08-31T05:20:37;12.98;;;8.45;;
75139;SDS011;63714;55.812;37.658;2023-08-31T05:23:03;14.85;;;7.90;;
75139;SDS011;63714;55.812;37.658;2023-08-31T05:25:29;15.75;;;8.38;;
75139;SDS011;63714;55.812;37.658;2023-08-31T05:27:54;14.40;;;8.02;;
75139;SDS011;63714;55.812;37.658;2023-08-31T05:30:20;14.80;;;7.82;;
75139;SDS011;63714;55.812;37.658;2023-08-31T05:32:45;14.38;;;7.93;;
75139;SDS011;63714;55.812;37.658;2023-08-31T05:35:11;13.55;;;7.45;;
75139;SDS011;63714;55.812;37.658;2023-08-31T05:37:37;14.45;;;8.00;;
75139;SDS011;63714;55.812;37.658;2023-08-31T05:40:03;11.65;;;7.45;;
75139;SDS011;63714;55.812;37.658;2023-08-31T05:42:31;11.65;;;7.28;;
75139;SDS011;63714;55.812;37.658;2023-08-31T05:44:57;10.13;;;7.32;;
75139;SDS011;63714;55.812;37.658;2023-08-31T05:47:23;9.70;;;7.00;;
75139;SDS011;63714;55.812;37.658;2023-08-31T05:49:48;13.65;;;7.07;;
75139;SDS011;63714;55.812;37.658;2023-08-31T05:52:14;11.43;;;7.50;;
75139;SDS011;63714;55.812;37.658;2023-08-31T05:54:39;11.48;;;6.65;;
75139;SDS011;63714;55.812;37.658;2023-08-31T05:57:05;13.45;;;7.93;;
75139;SDS011;63714;55.812;37.658;2023-08-31T05:59:30;13.30;;;7.78;;
75139;SDS011;63714;55.812;37.658;2023-08-31T06:01:56;10.15;;;6.63;;
75139;SDS011;63714;55.812;37.658;2023-08-31T06:04:21;14.30;;;7.57;;
75139;SDS011;63714;55.812;37.658;2023-08-31T06:06:47;12.57;;;7.82;;
75139;SDS011;63714;55.812;37.658;2023-08-31T06:09:31;11.40;;;7.15;;
75139;SDS011;63714;55.812;37.658;2023-08-31T06:11:56;10.65;;;6.85;;
75139;SDS011;63714;55.812;37.658;2023-08-31T06:14:22;14.20;;;8.38;;
75139;SDS011;63714;55.812;37.658;2023-08-31T06:16:47;11.25;;;7.50;;
75139;SDS011;63714;55.812;37.658;2023-08-31T06:19:13;12.63;;;7.15;;
75139;SDS011;63714;55.812;37.658;2023-08-31T06:21:41;12.52;;;6.88;;
75139;SDS011;63714;55.812;37.658;2023-08-31T06:24:07;10.65;;;7.53;;
75139;SDS011;63714;55.812;37.658;2023-08-31T06:26:35;10.73;;;7.40;;
75139;SDS011;63714;55.812;37.658;2023-08-31T06:29:01;10.65;;;6.53;;
75139;SDS011;63714;55.812;37.658;2023-08-31T06:31:28;14.80;;;7.35;;
75139;SDS011;63714;55.812;37.658;2023-08-31T06:33:54;11.90;;;6.90;;
75139;SDS011;63714;55.812;37.658;2023-08-31T06:36:20;10.80;;;6.07;;
75139;SDS011;63714;55.812;37.658;2023-08-31T06:38:45;10.90;;;6.50;;
75139;SDS011;63714;55.812;37.658;2023-08-31T06:41:11;12.95;;;7.22;;
75139;SDS011;63714;55.812;37.658;2023-08-31T06:43:36;11.02;;;6.72;;
75139;SDS011;63714;55.812;37.658;2023-08-31T06:46:02;10.23;;;5.75;;
75139;SDS011;63714;55.812;37.658;2023-08-31T06:48:28;8.82;;;6.82;;
75139;SDS011;63714;55.812;37.658;2023-08-31T06:50:54;8.25;;;5.70;;
75139;SDS011;63714;55.812;37.658;2023-08-31T06:53:21;12.73;;;5.93;;
75139;SDS011;63714;55.812;37.658;2023-08-31T06:55:46;13.35;;;7.00;;
75139;SDS011;63714;55.812;37.658;2023-08-31T06:58:13;10.77;;;6.53;;
75139;SDS011;63714;55.812;37.658;2023-08-31T07:00:38;13.23;;;6.18;;
75139;SDS011;63714;55.812;37.658;2023-08-31T07:03:04;9.32;;;6.22;;
75139;SDS011;63714;55.812;37.658;2023-08-31T07:05:33;8.32;;;5.28;;
75139;SDS011;63714;55.812;37.658;2023-08-31T07:08:02;10.15;;;5.63;;
75139;SDS011;63714;55.812;37.658;2023-08-31T07:10:28;9.57;;;5.63;;
75139;SDS011;63714;55.812;37.658;2023-08-31T07:12:53;9.80;;;5.53;;
75139;SDS011;63714;55.812;37.658;2023-08-31T07:15:19;10.60;;;6.40;;
75139;SDS011;63714;55.812;37.658;2023-08-31T07:17:44;11.43;;;5.60;;
75139;SDS011;63714;55.812;37.658;2023-08-31T07:20:11;10.45;;;5.45;;
75139;SDS011;63714;55.812;37.658;2023-08-31T07:22:37;8.00;;;5.10;;
75139;SDS011;63714;55.812;37.658;2023-08-31T07:25:03;10.05;;;5.90;;
75139;SDS011;63714;55.812;37.658;2023-08-31T07:27:29;12.02;;;5.72;;
75139;SDS011;63714;55.812;37.658;2023-08-31T07:29:55;9.38;;;5.43;;
75139;SDS011;63714;55.812;37.658;2023-08-31T07:32:20;12.43;;;5.82;;
75139;SDS011;63714;55.812;37.658;2023-08-31T07:34:47;9.70;;;6.70;;
75139;SDS011;63714;55.812;37.658;2023-08-31T07:37:13;11.40;;;6.00;;
75139;SDS011;63714;55.812;37.658;2023-08-31T07:39:38;9.93;;;6.07;;
75139;SDS011;63714;55.812;37.658;2023-08-31T07:42:04;9.15;;;6.60;;
75139;SDS011;63714;55.812;37.658;2023-08-31T07:44:30;7.43;;;5.88;;
75139;SDS011;63714;55.812;37.658;2023-08-31T07:46:56;8.73;;;6.05;;
75139;SDS011;63714;55.812;37.658;2023-08-31T07:49:21;10.02;;;5.60;;
75139;SDS011;63714;55.812;37.658;2023-08-31T07:51:47;11.65;;;6.15;;
75139;SDS011;63714;55.812;37.658;2023-08-31T07:54:19;13.30;;;5.47;;
75139;SDS011;63714;55.812;37.658;2023-08-31T07:56:45;9.50;;;5.93;;
75139;SDS011;63714;55.812;37.658;2023-08-31T07:59:10;9.38;;;5.47;;
75139;SDS011;63714;55.812;37.658;2023-08-31T08:01:36;12.07;;;5.78;;
75139;SDS011;63714;55.812;37.658;2023-08-31T08:04:01;8.40;;;6.07;;
75139;SDS011;63714;55.812;37.658;2023-08-31T08:06:28;11.30;;;6.07;;
75139;SDS011;63714;55.812;37.658;2023-08-31T08:08:53;12.25;;;6.88;;
75139;SDS011;63714;55.812;37.658;2023-08-31T08:11:19;12.13;;;6.22;;
75139;SDS011;63714;55.812;37.658;2023-08-31T08:13:44;10.13;;;6.07;;
75139;SDS011;63714;55.812;37.658;2023-08-31T08:16:10;7.45;;;5.82;;
75139;SDS011;63714;55.812;37.658;2023-08-31T08:18:35;9.85;;;5.65;;
75139;SDS011;63714;55.812;37.658;2023-08-31T08:21:01;8.93;;;6.28;;
75139;SDS011;63714;55.812;37.658;2023-08-31T08:23:26;9.82;;;6.15;;
75139;SDS011;63714;55.812;37.658;2023-08-31T08:25:51;10.32;;;5.75;;
75139;SDS011;63714;55.812;37.658;2023-08-31T08:28:17;10.77;;;6.10;;
75139;SDS011;63714;55.812;37.658;2023-08-31T08:30:42;9.98;;;5.43;;
75139;SDS011;63714;55.812;37.658;2023-08-31T08:33:08;11.18;;;5.90;;
75139;SDS011;63714;55.812;37.658;2023-08-31T08:35:34;10.52;;;5.57;;
75139;SDS011;63714;55.812;37.658;2023-08-31T08:38:02;7.80;;;5.40;;
75139;SDS011;63714;55.812;37.658;2023-08-31T08:40:30;8.88;;;5.35;;
75139;SDS011;63714;55.812;37.658;2023-08-31T08:42:56;8.20;;;5.22;;
75139;SDS011;63714;55.812;37.658;2023-08-31T08:45:25;8.35;;;5.32;;
75139;SDS011;63714;55.812;37.658;2023-08-31T08:47:55;13.02;;;5.63;;
75139;SDS011;63714;55.812;37.658;2023-08-31T08:50:22;9.02;;;5.20;;
75139;SDS011;63714;55.812;37.658;2023-08-31T08:52:48;7.28;;;4.95;;
75139;SDS011;63714;55.812;37.658;2023-08-31T08:55:14;8.43;;;5.97;;
75139;SDS011;63714;55.812;37.658;2023-08-31T08:57:40;7.22;;;5.13;;
75139;SDS011;63714;55.812;37.658;2023-08-31T09:00:06;9.90;;;4.68;;
75139;SDS011;63714;55.812;37.658;2023-08-31T09:02:32;11.95;;;5.97;;
75139;SDS011;63714;55.812;37.658;2023-08-31T09:04:57;13.23;;;5.75;;
75139;SDS011;63714;55.812;37.658;2023-08-31T09:07:24;12.43;;;5.70;;
75139;SDS011;63714;55.812;37.658;2023-08-31T09:09:50;7.00;;;5.13;;
75139;SDS011;63714;55.812;37.658;2023-08-31T09:12:17;9.93;;;5.53;;
75139;SDS011;63714;55.812;37.658;2023-08-31T09:14:43;8.98;;;5.50;;
75139;SDS011;63714;55.812;37.658;2023-08-31T09:17:09;12.27;;;5.15;;
75139;SDS011;63714;55.812;37.658;2023-08-31T09:19:35;9.10;;;5.25;;
75139;SDS011;63714;55.812;37.658;2023-08-31T09:22:00;9.30;;;5.38;;
75139;SDS011;63714;55.812;37.658;2023-08-31T09:24:25;8.43;;;5.25;;
75139;SDS011;63714;55.812;37.658;2023-08-31T09:26:57;9.13;;;5.15;;
75139;SDS011;63714;55.812;37.658;2023-08-31T09:29:23;9.40;;;4.88;;
75139;SDS011;63714;55.812;37.658;2023-08-31T09:31:49;8.55;;;4.63;;
75139;SDS011;63714;55.812;37.658;2023-08-31T09:34:16;8.02;;;4.30;;
75139;SDS011;63714;55.812;37.658;2023-08-31T09:36:42;8.88;;;4.75;;
75139;SDS011;63714;55.812;37.658;2023-08-31T09:39:09;7.53;;;4.40;;
75139;SDS011;63714;55.812;37.658;2023-08-31T09:41:35;8.50;;;4.38;;
75139;SDS011;63714;55.812;37.658;2023-08-31T09:44:17;9.43;;;4.53;;
75139;SDS011;63714;55.812;37.658;2023-08-31T09:46:44;8.30;;;4.25;;
75139;SDS011;63714;55.812;37.658;2023-08-31T09:49:11;9.20;;;4.53;;
75139;SDS011;63714;55.812;37.658;2023-08-31T09:51:39;9.25;;;4.43;;
75139;SDS011;63714;55.812;37.658;2023-08-31T09:54:09;8.07;;;4.28;;
75139;SDS011;63714;55.812;37.658;2023-08-31T09:56:38;9.38;;;4.63;;
75139;SDS011;63714;55.812;37.658;2023-08-31T09:59:06;8.48;;;4.43;;
75139;SDS011;63714;55.812;37.658;2023-08-31T10:01:33;6.45;;;4.78;;
75139;SDS011;63714;55.812;37.658;2023-08-31T10:03:59;8.88;;;4.55;;
75139;SDS011;63714;55.812;37.658;2023-08-31T10:06:24;6.25;;;4.65;;
75139;SDS011;63714;55.812;37.658;2023-08-31T10:08:51;8.80;;;5.35;;
75139;SDS011;63714;55.812;37.658;2023-08-31T10:11:17;8.75;;;5.65;;
75139;SDS011;63714;55.812;37.658;2023-08-31T10:13:43;13.88;;;6.43;;
75139;SDS011;63714;55.812;37.658;2023-08-31T10:16:11;9.18;;;4.68;;
75139;SDS011;63714;55.812;37.658;2023-08-31T10:18:36;6.80;;;4.93;;
75139;SDS011;63714;55.812;37.658;2023-08-31T10:21:02;8.63;;;4.35;;
75139;SDS011;63714;55.812;37.658;2023-08-31T10:23:29;5.70;;;4.28;;
75139;SDS011;63714;55.812;37.658;2023-08-31T10:28:24;11.23;;;4.85;;
75139;SDS011;63714;55.812;37.658;2023-08-31T10:33:57;12.15;;;4.80;;
75139;SDS011;63714;55.812;37.658;2023-08-31T10:36:38;9.60;;;4.43;;
75139;SDS011;63714;55.812;37.658;2023-08-31T10:39:12;8.45;;;4.57;;
75139;SDS011;63714;55.812;37.658;2023-08-31T10:41:41;6.43;;;4.70;;
75139;SDS011;63714;55.812;37.658;2023-08-31T10:44:22;8.45;;;4.15;;
75139;SDS011;63714;55.812;37.658;2023-08-31T10:46:49;11.52;;;4.75;;
75139;SDS011;63714;55.812;37.658;2023-08-31T10:49:17;9.25;;;4.88;;
75139;SDS011;63714;55.812;37.658;2023-08-31T10:59:49;7.80;;;4.00;;
75139;SDS011;63714;55.812;37.658;2023-08-31T11:05:18;13.70;;;4.38;;
75139;SDS011;63714;55.812;37.658;2023-08-31T11:07:44;8.20;;;4.10;;
75139;SDS011;63714;55.812;37.658;2023-08-31T11:10:19;7.90;;;4.53;;
75139;SDS011;63714;55.812;37.658;2023-08-31T11:12:51;7.70;;;4.60;;
75139;SDS011;63714;55.812;37.658;2023-08-31T11:15:19;9.43;;;4.47;;
75139;SDS011;63714;55.812;37.658;2023-08-31T11:17:48;6.32;;;3.97;;
75139;SDS011;63714;55.812;37.658;2023-08-31T11:20:16;9.93;;;4.00;;
75139;SDS011;63714;55.812;37.658;2023-08-31T11:22:47;9.55;;;4.30;;
75139;SDS011;63714;55.812;37.658;2023-08-31T11:25:20;10.15;;;4.20;;
75139;SDS011;63714;55.812;37.658;2023-08-31T11:27:55;12.25;;;4.47;;
75139;SDS011;63714;55.812;37.658;2023-08-31T11:30:21;7.75;;;3.85;;
75139;SDS011;63714;55.812;37.658;2023-08-31T11:32:47;8.27;;;4.45;;
75139;SDS011;63714;55.812;37.658;2023-08-31T11:35:15;7.72;;;4.25;;
75139;SDS011;63714;55.812;37.658;2023-08-31T11:37:42;8.63;;;4.47;;
75139;SDS011;63714;55.812;37.658;2023-08-31T11:40:09;7.43;;;4.35;;
75139;SDS011;63714;55.812;37.658;2023-08-31T11:42:35;9.23;;;4.30;;
75139;SDS011;63714;55.812;37.658;2023-08-31T11:45:02;7.57;;;4.25;;
75139;SDS011;63714;55.812;37.658;2023-08-31T11:47:31;8.10;;;3.95;;
75139;SDS011;63714;55.812;37.658;2023-08-31T11:49:57;11.68;;;4.70;;
75139;SDS011;63714;55.812;37.658;2023-08-31T11:52:23;10.10;;;4.43;;
75139;SDS011;63714;55.812;37.658;2023-08-31T11:54:51;8.20;;;3.90;;
75139;SDS011;63714;55.812;37.658;2023-08-31T11:57:19;10.73;;;4.20;;
75139;SDS011;63714;55.812;37.658;2023-08-31T11:59:50;8.88;;;4.13;;
75139;SDS011;63714;55.812;37.658;2023-08-31T12:02:15;9.38;;;3.80;;
75139;SDS011;63714;55.812;37.658;2023-08-31T12:04:41;8.48;;;3.97;;
75139;SDS011;63714;55.812;37.658;2023-08-31T12:07:11;7.10;;;4.57;;
75139;SDS011;63714;55.812;37.658;2023-08-31T12:09:40;9.52;;;4.43;;
75139;SDS011;63714;55.812;37.658;2023-08-31T12:12:07;9.18;;;4.65;;
75139;SDS011;63714;55.812;37.658;2023-08-31T12:14:33;7.72;;;4.80;;
75139;SDS011;63714;55.812;37.658;2023-08-31T12:17:02;6.70;;;3.88;;
75139;SDS011;63714;55.812;37.658;2023-08-31T12:19:29;8.00;;;4.43;;
75139;SDS011;63714;55.812;37.658;2023-08-31T12:21:55;8.85;;;4.68;;
75139;SDS011;63714;55.812;37.658;2023-08-31T12:24:21;7.97;;;4.20;;
75139;SDS011;63714;55.812;37.658;2023-08-31T12:26:48;8.73;;;3.72;;
75139;SDS011;63714;55.812;37.658;2023-08-31T12:29:14;7.80;;;4.78;;
75139;SDS011;63714;55.812;37.658;2023-08-31T12:31:39;12.95;;;4.50;;
75139;SDS011;63714;55.812;37.658;2023-08-31T12:34:06;9.98;;;4.45;;
75139;SDS011;63714;55.812;37.658;2023-08-31T12:36:35;7.22;;;4.00;;
75139;SDS011;63714;55.812;37.658;2023-08-31T12:39:02;10.70;;;4.47;;
75139;SDS011;63714;55.812;37.658;2023-08-31T12:41:31;9.88;;;4.35;;
75139;SDS011;63714;55.812;37.658;2023-08-31T12:43:57;11.02;;;3.85;;
75139;SDS011;63714;55.812;37.658;2023-08-31T12:46:23;10.13;;;4.18;;
75139;SDS011;63714;55.812;37.658;2023-08-31T12:48:49;12.13;;;5.68;;
75139;SDS011;63714;55.812;37.658;2023-08-31T12:51:15;8.77;;;4.20;;
75139;SDS011;63714;55.812;37.658;2023-08-31T12:53:41;10.07;;;4.00;;
75139;SDS011;63714;55.812;37.658;2023-08-31T12:56:07;11.27;;;4.55;;
75139;SDS011;63714;55.812;37.658;2023-08-31T12:58:32;7.95;;;4.60;;
75139;SDS011;63714;55.812;37.658;2023-08-31T13:00:58;7.10;;;4.47;;
75139;SDS011;63714;55.812;37.658;2023-08-31T13:03:24;6.75;;;4.35;;
75139;SDS011;63714;55.812;37.658;2023-08-31T13:05:50;11.95;;;4.93;;
75139;SDS011;63714;55.812;37.658;2023-08-31T13:08:16;7.97;;;4.25;;
75139;SDS011;63714;55.812;37.658;2023-08-31T13:10:41;9.85;;;4.57;;
75139;SDS011;63714;55.812;37.658;2023-08-31T13:13:07;7.57;;;4.10;;
75139;SDS011;63714;55.812;37.658;2023-08-31T13:15:33;6.85;;;3.97;;
75139;SDS011;63714;55.812;37.658;2023-08-31T13:17:59;11.52;;;4.70;;
75139;SDS011;63714;55.812;37.658;2023-08-31T13:20:24;9.45;;;4.35;;
75139;SDS011;63714;55.812;37.658;2023-08-31T13:22:50;9.40;;;4.25;;
75139;SDS011;63714;55.812;37.658;2023-08-31T13:25:16;8.63;;;4.50;;
75139;SDS011;63714;55.812;37.658;2023-08-31T13:27:42;7.75;;;4.32;;
75139;SDS011;63714;55.812;37.658;2023-08-31T13:30:07;8.07;;;3.78;;
75139;SDS011;63714;55.812;37.658;2023-08-31T13:32:34;6.78;;;4.47;;
75139;SDS011;63714;55.812;37.658;2023-08-31T13:34:59;9.38;;;5.07;;
75139;SDS011;63714;55.812;37.658;2023-08-31T13:37:25;9.07;;;5.22;;
75139;SDS011;63714;55.812;37.658;2023-08-31T13:39:51;7.70;;;4.25;;
75139;SDS011;63714;55.812;37.658;2023-08-31T13:42:22;10.82;;;4.10;;
75139;SDS011;63714;55.812;37.658;2023-08-31T13:44:48;9.30;;;4.15;;
75139;SDS011;63714;55.812;37.658;2023-08-31T13:47:13;8.88;;;3.97;;
75139;SDS011;63714;55.812;37.658;2023-08-31T13:49:38;8.88;;;4.25;;
75139;SDS011;63714;55.812;37.658;2023-08-31T13:52:04;9.48;;;4.53;;
75139;SDS011;63714;55.812;37.658;2023-08-31T13:54:31;14.65;;;4.13;;
75139;SDS011;63714;55.812;37.658;2023-08-31T13:56:58;8.93;;;4.53;;
75139;SDS011;63714;55.812;37.658;2023-08-31T13:59:24;10.88;;;4.38;;
75139;SDS011;63714;55.812;37.658;2023-08-31T14:01:52;9.18;;;4.13;;
75139;SDS011;63714;55.812;37.658;2023-08-31T14:04:18;7.03;;;4.10;;
75139;SDS011;63714;55.812;37.658;2023-08-31T14:06:44;10.23;;;4.28;;
75139;SDS011;63714;55.812;37.658;2023-08-31T14:09:09;9.38;;;3.97;;
75139;SDS011;63714;55.812;37.658;2023-08-31T14:11:35;11.32;;;4.00;;
75139;SDS011;63714;55.812;37.658;2023-08-31T14:14:01;7.75;;;4.13;;
75139;SDS011;63714;55.812;37.658;2023-08-31T14:16:31;9.90;;;4.38;;
75139;SDS011;63714;55.812;37.658;2023-08-31T14:18:57;7.82;;;4.93;;
75139;SDS011;63714;55.812;37.658;2023-08-31T14:21:23;8.65;;;4.30;;
75139;SDS011;63714;55.812;37.658;2023-08-31T14:23:48;7.15;;;4.28;;
75139;SDS011;63714;55.812;37.658;2023-08-31T14:26:14;10.23;;;4.30;;
75139;SDS011;63714;55.812;37.658;2023-08-31T14:28:39;8.20;;;4.15;;
75139;SDS011;63714;55.812;37.658;2023-08-31T14:31:05;10.65;;;4.30;;
75139;SDS011;63714;55.812;37.658;2023-08-31T14:33:31;9.32;;;4.28;;
75139;SDS011;63714;55.812;37.658;2023-08-31T14:35:57;9.52;;;4.10;;
75139;SDS011;63714;55.812;37.658;2023-08-31T14:38:22;10.73;;;4.70;;
75139;SDS011;63714;55.812;37.658;2023-08-31T14:40:48;10.35;;;4.15;;
75139;SDS011;63714;55.812;37.658;2023-08-31T14:43:14;8.15;;;4.50;;
75139;SDS011;63714;55.812;37.658;2023-08-31T14:45:39;6.82;;;3.90;;
75139;SDS011;63714;55.812;37.658;2023-08-31T14:48:05;11.15;;;4.57;;